Organ Cave, West Virginia
Current Conditions -  °F | °C
As of 4:15 AM on Sunday 26 Oct 2014 (Local Time) from KLWB Reporting Station
Broken Clouds Broken Clouds  
Wind Chill: 60°   Ceiling: 4200
Heat Index: 60°   Visibility: 10mi
Dew Point: 49°   Wind: 5mph
Humidity: 67%   Direction: 290°WNW
Pressure: 29.86"   Gusts: NA
Location:  37.7253°N, 80.4371°W
Report Text: KLWB 260815Z AUTO 29004KT 10SM SCT035 BKN042 15/09 A2986 RMK AO2 T01530093
Loading
Personal Weather Stations






























Interactive Weather Map
Tropical Storm Tracking
New forecast layout! Learn more

10-Day Weather Forecast

Advertisements
Track Severe Weather on mobile